createdAt,value
2022-08-18T00:02:26.251Z,19.20
2022-08-18T00:04:57.206Z,19.30
2022-08-18T00:07:31.222Z,19.20
2022-08-18T00:09:59.747Z,19.10
2022-08-18T00:12:33.236Z,19.10
2022-08-18T00:15:04.193Z,19.10
2022-08-18T00:17:32.127Z,19.10
2022-08-18T00:19:59.210Z,19.10
2022-08-18T00:22:26.440Z,19.20
2022-08-18T00:24:55.430Z,19.10
2022-08-18T00:27:29.143Z,19.10
2022-08-18T00:30:01.294Z,19.00
2022-08-18T00:32:34.224Z,18.90
2022-08-18T00:35:13.028Z,19.00
2022-08-18T00:37:41.098Z,18.90
2022-08-18T00:40:10.757Z,18.70
2022-08-18T00:42:45.691Z,18.60
2022-08-18T00:45:20.354Z,18.60
2022-08-18T00:47:47.460Z,18.50
2022-08-18T00:50:20.251Z,18.50
2022-08-18T00:52:55.406Z,18.60
2022-08-18T00:55:24.125Z,18.60
2022-08-18T00:57:55.136Z,18.60
2022-08-18T01:00:22.961Z,18.60
2022-08-18T01:02:55.982Z,18.60
2022-08-18T01:05:27.391Z,18.60
2022-08-18T01:07:54.459Z,18.50
2022-08-18T01:10:23.420Z,18.50
2022-08-18T01:12:53.956Z,18.50
2022-08-18T01:15:29.399Z,18.50
2022-08-18T01:18:25.570Z,18.60
2022-08-18T01:21:39.221Z,18.50
2022-08-18T01:24:08.900Z,18.50
2022-08-18T01:26:44.943Z,18.60
2022-08-18T01:29:18.683Z,18.60
2022-08-18T01:31:55.473Z,18.60
2022-08-18T01:34:26.014Z,18.80
2022-08-18T01:36:55.014Z,18.80
2022-08-18T01:41:20.957Z,18.60
2022-08-18T01:42:09.899Z,18.50
2022-08-18T01:44:36.895Z,18.50
2022-08-18T01:47:04.212Z,18.50
2022-08-18T01:49:31.125Z,18.30
2022-08-18T01:51:58.132Z,18.20
2022-08-18T01:54:29.954Z,18.20
2022-08-18T01:56:56.973Z,18.10
2022-08-18T01:59:23.824Z,18.10
2022-08-18T02:01:55.761Z,18.10
2022-08-18T02:04:36.453Z,18.10
2022-08-18T02:07:07.760Z,18.10
2022-08-18T02:09:36.600Z,18.20
2022-08-18T02:12:05.601Z,18.30
2022-08-18T02:14:33.000Z,18.20
2022-08-18T02:17:02.537Z,18.00
2022-08-18T02:19:39.016Z,17.90
2022-08-18T02:22:08.003Z,18.00
2022-08-18T02:24:35.113Z,18.00
2022-08-18T02:27:02.081Z,17.90
2022-08-18T02:29:29.099Z,17.90
2022-08-18T02:31:56.144Z,17.80
2022-08-18T02:34:23.611Z,17.90
2022-08-18T02:36:50.535Z,17.80
2022-08-18T02:39:17.884Z,17.80
2022-08-18T02:41:44.831Z,17.80
2022-08-18T02:44:11.863Z,17.70
2022-08-18T02:46:38.894Z,17.70
2022-08-18T02:49:08.172Z,17.60
2022-08-18T02:51:35.284Z,17.70
2022-08-18T02:54:02.250Z,17.70
2022-08-18T02:56:40.348Z,17.70
2022-08-18T02:59:12.498Z,17.70
2022-08-18T03:01:42.770Z,17.60
2022-08-18T03:04:12.563Z,17.50
2022-08-18T03:06:39.873Z,17.50
2022-08-18T03:09:09.560Z,17.50
2022-08-18T03:11:37.357Z,17.40
2022-08-18T03:14:05.662Z,17.40
2022-08-18T03:16:33.436Z,17.40
2022-08-18T03:19:01.813Z,17.30
2022-08-18T03:21:31.532Z,17.30
2022-08-18T03:24:00.682Z,17.40
2022-08-18T03:26:30.143Z,17.40
2022-08-18T03:28:58.304Z,17.40
2022-08-18T03:31:27.775Z,17.40
2022-08-18T03:33:59.380Z,17.40
2022-08-18T03:36:31.926Z,17.40
2022-08-18T03:39:01.804Z,17.40
2022-08-18T03:41:57.208Z,17.40
2022-08-18T03:44:18.310Z,17.50
2022-08-18T03:46:45.407Z,17.50
2022-08-18T03:49:12.809Z,17.50
2022-08-18T03:51:43.665Z,17.50
2022-08-18T03:54:13.214Z,17.40
2022-08-18T03:56:41.667Z,17.50
2022-08-18T03:59:13.739Z,17.50
2022-08-18T04:01:42.504Z,17.50
2022-08-18T04:04:12.135Z,17.50
2022-08-18T04:07:05.099Z,17.50
2022-08-18T04:09:32.966Z,17.60
2022-08-18T04:12:15.359Z,17.60
2022-08-18T04:14:46.557Z,17.60
2022-08-18T04:17:13.512Z,17.60
2022-08-18T04:19:40.350Z,17.60
2022-08-18T04:22:07.179Z,17.70
2022-08-18T04:24:34.719Z,17.80
2022-08-18T04:27:05.018Z,17.80
2022-08-18T04:29:32.222Z,17.80
2022-08-18T04:32:01.406Z,17.80
2022-08-18T04:34:28.453Z,17.80
2022-08-18T04:36:55.384Z,17.80
2022-08-18T04:39:23.586Z,17.80
2022-08-18T04:41:51.262Z,17.80
2022-08-18T04:44:18.782Z,17.90
2022-08-18T04:46:49.036Z,17.90
2022-08-18T04:49:17.954Z,17.90
2022-08-18T04:52:26.848Z,17.90
2022-08-18T04:54:53.057Z,18.10
2022-08-18T04:57:21.692Z,18.10
2022-08-18T04:59:51.163Z,18.10
2022-08-18T05:02:19.661Z,18.00
2022-08-18T05:04:47.306Z,17.90
2022-08-18T05:07:17.932Z,18.00
2022-08-18T05:09:44.807Z,17.90
2022-08-18T05:12:14.330Z,18.10
2022-08-18T05:14:44.643Z,18.10
2022-08-18T05:17:12.766Z,18.00
2022-08-18T05:19:42.268Z,18.10
2022-08-18T05:22:13.957Z,17.90
2022-08-18T05:24:41.591Z,17.90
2022-08-18T05:27:08.563Z,17.90
2022-08-18T05:29:41.472Z,17.90
2022-08-18T05:32:37.340Z,17.90
2022-08-18T05:35:02.552Z,18.00
2022-08-18T05:37:41.301Z,18.00
2022-08-18T05:40:11.257Z,18.00
2022-08-18T05:42:40.585Z,18.00
2022-08-18T05:45:12.658Z,18.00
2022-08-18T05:47:39.605Z,18.00
2022-08-18T05:50:17.324Z,18.00
2022-08-18T05:53:13.966Z,18.10
2022-08-18T05:56:13.955Z,18.10
2022-08-18T05:58:46.340Z,18.00
2022-08-18T06:01:21.623Z,18.00
2022-08-18T06:04:23.313Z,18.10
2022-08-18T06:06:51.579Z,18.10
2022-08-18T06:09:24.547Z,18.20
2022-08-18T06:11:53.095Z,18.20
2022-08-18T06:14:20.263Z,18.20
2022-08-18T06:17:13.445Z,18.30
2022-08-18T06:19:47.719Z,18.50
2022-08-18T06:22:26.973Z,18.40
2022-08-18T06:25:06.531Z,18.50
2022-08-18T06:28:22.959Z,18.50
2022-08-18T06:31:11.087Z,18.60
2022-08-18T06:33:59.185Z,18.50
2022-08-18T06:36:49.966Z,18.40
2022-08-18T06:39:44.459Z,18.50
2022-08-18T06:42:11.370Z,18.40
2022-08-18T06:44:44.383Z,18.50
2022-08-18T06:47:31.004Z,18.30
2022-08-18T06:50:23.184Z,18.20
2022-08-18T06:52:56.362Z,18.10
2022-08-18T06:55:46.010Z,18.10
2022-08-18T06:58:15.913Z,17.90
2022-08-18T07:00:47.505Z,17.80
2022-08-18T07:03:38.236Z,17.80
2022-08-18T07:06:31.566Z,17.90
2022-08-18T07:09:16.857Z,18.10
2022-08-18T07:12:04.581Z,18.20
2022-08-18T07:14:32.296Z,18.20
2022-08-18T07:17:22.385Z,18.20
2022-08-18T07:20:17.841Z,18.10
2022-08-18T07:22:53.980Z,18.00
2022-08-18T07:25:27.909Z,18.10
2022-08-18T07:27:57.263Z,18.20
2022-08-18T07:30:24.934Z,18.20
2022-08-18T07:33:12.347Z,18.00
2022-08-18T07:35:49.524Z,17.90
2022-08-18T07:38:42.051Z,18.00
2022-08-18T07:41:16.934Z,17.90
2022-08-18T07:43:59.545Z,18.00
2022-08-18T07:47:00.606Z,18.00
2022-08-18T07:49:32.927Z,18.00
2022-08-18T07:52:16.338Z,18.00
2022-08-18T07:55:06.472Z,18.00
2022-08-18T07:57:52.129Z,17.90
2022-08-18T08:00:55.318Z,17.80
2022-08-18T08:03:41.547Z,17.80
2022-08-18T08:06:19.147Z,17.90
2022-08-18T08:09:35.246Z,17.90
2022-08-18T08:12:11.250Z,18.00
2022-08-18T08:14:52.120Z,18.20
2022-08-18T08:17:25.762Z,18.10
2022-08-18T08:20:11.997Z,18.20
2022-08-18T08:23:04.795Z,18.20
2022-08-18T08:25:47.249Z,18.30
2022-08-18T08:28:31.580Z,18.30
2022-08-18T08:31:36.663Z,18.40
2022-08-18T08:34:33.643Z,18.30
2022-08-18T08:37:04.058Z,18.50
2022-08-18T08:39:49.713Z,18.60
2022-08-18T08:42:31.875Z,18.50
2022-08-18T08:45:16.265Z,18.50
2022-08-18T08:48:11.494Z,18.70
2022-08-18T08:50:49.266Z,18.90
2022-08-18T08:53:27.785Z,19.00
2022-08-18T08:56:02.524Z,19.20
2022-08-18T08:58:51.215Z,19.30
2022-08-18T09:01:27.115Z,19.20
2022-08-18T09:04:17.258Z,19.00
2022-08-18T09:06:53.069Z,19.00
2022-08-18T09:09:28.997Z,18.90
2022-08-18T09:12:13.905Z,18.90
2022-08-18T09:15:03.934Z,18.90
2022-08-18T09:18:08.552Z,19.10
2022-08-18T09:20:36.021Z,19.30
2022-08-18T09:23:18.369Z,19.10
2022-08-18T09:25:54.618Z,19.30
2022-08-18T09:28:30.674Z,19.50
2022-08-18T09:31:08.571Z,19.70
2022-08-18T09:33:40.650Z,19.70
2022-08-18T09:36:15.254Z,19.70
2022-08-18T09:39:36.381Z,19.70
2022-08-18T09:42:17.148Z,19.70
2022-08-18T09:44:48.753Z,19.40
2022-08-18T09:47:22.318Z,19.60
2022-08-18T09:49:53.824Z,19.60
2022-08-18T09:52:24.247Z,19.60
2022-08-18T09:54:53.761Z,19.60
2022-08-18T09:57:27.323Z,19.50
2022-08-18T09:59:56.834Z,19.50
2022-08-18T10:02:28.462Z,19.50
2022-08-18T10:05:17.576Z,19.50
2022-08-18T10:11:23.675Z,19.50
2022-08-18T10:14:23.400Z,19.70
2022-08-18T10:17:23.726Z,19.90
2022-08-18T10:20:26.755Z,20.10
2022-08-18T10:22:56.575Z,20.20
2022-08-18T10:25:37.296Z,20.10
2022-08-18T10:28:08.014Z,20.10
2022-08-18T10:30:56.923Z,20.00
2022-08-18T10:34:19.164Z,20.00
2022-08-18T10:36:58.871Z,20.10
2022-08-18T10:42:44.787Z,20.30
2022-08-18T10:48:34.773Z,20.70
2022-08-18T10:51:27.518Z,21.00
2022-08-18T10:54:02.594Z,21.10
2022-08-18T10:56:57.689Z,21.10
2022-08-18T10:59:31.912Z,21.40
2022-08-18T11:03:21.147Z,21.40
2022-08-18T11:05:42.985Z,21.50
2022-08-18T11:08:20.235Z,21.10
2022-08-18T11:11:27.434Z,21.00
2022-08-18T11:14:08.561Z,21.30
2022-08-18T11:16:59.528Z,21.20
2022-08-18T11:19:27.274Z,21.20
2022-08-18T11:21:54.340Z,21.50
2022-08-18T11:24:23.276Z,21.40
2022-08-18T11:27:04.384Z,21.50
2022-08-18T11:29:42.847Z,21.50
2022-08-18T11:32:34.946Z,21.50
2022-08-18T11:35:04.834Z,21.60
2022-08-18T11:37:56.387Z,21.80
2022-08-18T11:41:08.775Z,22.00
2022-08-18T11:46:29.596Z,22.10
2022-08-18T11:49:13.819Z,22.20
2022-08-18T11:52:02.187Z,22.60
2022-08-18T11:54:50.523Z,22.80
2022-08-18T12:00:46.336Z,23.00
2022-08-18T12:03:28.831Z,22.90
2022-08-18T12:06:10.528Z,22.60
2022-08-18T12:09:19.989Z,22.30
2022-08-18T12:12:13.786Z,22.10
2022-08-18T12:15:04.871Z,22.20
2022-08-18T12:17:39.142Z,22.20
2022-08-18T12:20:12.023Z,22.30
2022-08-18T12:22:43.000Z,22.40
2022-08-18T12:25:13.436Z,22.30
2022-08-18T12:27:41.525Z,22.20
2022-08-18T12:30:16.721Z,22.40
2022-08-18T12:35:30.712Z,22.20
2022-08-18T12:40:44.974Z,22.60
2022-08-18T12:43:12.422Z,22.70
2022-08-18T12:45:40.325Z,22.70
2022-08-18T12:48:08.325Z,23.10
2022-08-18T12:50:49.684Z,23.20
2022-08-18T12:53:17.209Z,23.40
2022-08-18T12:55:45.695Z,23.80
2022-08-18T12:58:13.131Z,24.00
2022-08-18T13:00:41.243Z,24.10
2022-08-18T13:03:08.656Z,23.80
2022-08-18T13:05:36.226Z,23.40
2022-08-18T13:08:05.955Z,23.40
2022-08-18T13:10:45.637Z,22.90
2022-08-18T13:13:25.096Z,23.20
2022-08-18T13:15:58.285Z,23.40
2022-08-18T13:18:27.442Z,23.60
2022-08-18T13:21:00.310Z,23.10
2022-08-18T13:23:28.517Z,23.20
2022-08-18T13:25:59.561Z,23.60
2022-08-18T13:28:35.884Z,24.30
2022-08-18T13:31:16.961Z,24.40
2022-08-18T13:33:59.397Z,24.90
2022-08-18T13:36:45.981Z,25.10
2022-08-18T13:39:19.193Z,25.00
2022-08-18T13:41:48.087Z,24.50
2022-08-18T13:44:19.018Z,25.00
2022-08-18T13:46:48.355Z,24.80
2022-08-18T13:49:18.628Z,25.10
2022-08-18T13:51:59.204Z,24.60
2022-08-18T13:54:35.135Z,24.60
2022-08-18T13:57:03.669Z,24.70
2022-08-18T13:59:33.165Z,25.20
2022-08-18T14:02:05.958Z,24.90
2022-08-18T14:04:36.417Z,24.80
2022-08-18T14:07:09.988Z,24.70
2022-08-18T14:09:38.419Z,25.40
2022-08-18T14:12:21.463Z,25.50
2022-08-18T14:14:54.392Z,25.90
2022-08-18T14:17:24.831Z,26.00
2022-08-18T14:20:15.512Z,26.10
2022-08-18T14:23:12.339Z,25.50
2022-08-18T14:25:59.815Z,26.50
2022-08-18T14:28:28.444Z,26.30
2022-08-18T14:30:56.961Z,25.60
2022-08-18T14:33:49.599Z,25.60
2022-08-18T14:36:16.481Z,26.00
2022-08-18T14:38:45.250Z,26.80
2022-08-18T14:41:14.783Z,26.30
2022-08-18T14:44:10.961Z,26.60
2022-08-18T14:46:32.741Z,27.00
2022-08-18T14:49:04.147Z,27.30
2022-08-18T14:51:33.709Z,27.40
2022-08-18T14:54:01.655Z,26.90
2022-08-18T14:56:29.638Z,26.60
2022-08-18T14:58:59.628Z,25.90
2022-08-18T15:01:27.394Z,25.00
2022-08-18T15:03:55.041Z,25.30
2022-08-18T15:06:27.092Z,25.40
2022-08-18T15:08:54.875Z,25.80
2022-08-18T15:11:24.928Z,25.80
2022-08-18T15:13:55.132Z,25.00
2022-08-18T15:16:31.550Z,25.10
2022-08-18T15:18:59.397Z,25.00
2022-08-18T15:21:49.074Z,25.50
2022-08-18T15:24:39.782Z,25.80
2022-08-18T15:27:10.443Z,25.60
2022-08-18T15:29:46.612Z,25.90
2022-08-18T15:32:17.643Z,25.60
2022-08-18T15:34:46.415Z,25.30
2022-08-18T15:37:19.986Z,25.70
2022-08-18T15:39:55.437Z,25.50
2022-08-18T15:42:23.698Z,25.90
2022-08-18T15:44:52.752Z,26.00
2022-08-18T15:47:21.316Z,25.80
2022-08-18T15:49:48.531Z,26.20
2022-08-18T15:52:17.653Z,25.70
2022-08-18T15:54:50.327Z,26.30
2022-08-18T15:57:39.655Z,26.90
2022-08-18T16:00:06.006Z,26.90
2022-08-18T16:02:33.749Z,26.70
2022-08-18T16:05:10.478Z,26.20
2022-08-18T16:07:45.199Z,25.90
2022-08-18T16:10:13.675Z,25.90
2022-08-18T16:12:45.719Z,26.00
2022-08-18T16:15:21.649Z,25.60
2022-08-18T16:17:50.452Z,25.60
2022-08-18T16:20:18.884Z,25.70
2022-08-18T16:22:47.183Z,25.30
2022-08-18T16:25:16.613Z,25.60
2022-08-18T16:27:44.472Z,25.80
2022-08-18T16:30:15.064Z,25.80
2022-08-18T16:32:42.531Z,25.80
2022-08-18T16:35:11.146Z,25.40
2022-08-18T16:37:38.235Z,25.50
2022-08-18T16:40:06.647Z,25.60
2022-08-18T16:42:33.648Z,25.50
2022-08-18T16:45:01.558Z,25.30
2022-08-18T16:47:28.768Z,25.10
2022-08-18T16:49:58.487Z,25.10
2022-08-18T16:52:27.204Z,25.20
2022-08-18T16:54:58.038Z,25.20
2022-08-18T16:57:53.979Z,25.20
2022-08-18T17:00:41.947Z,25.00
2022-08-18T17:03:28.149Z,25.20
2022-08-18T17:06:07.660Z,25.60
2022-08-18T17:08:35.831Z,25.70
2022-08-18T17:11:04.563Z,25.60
2022-08-18T17:13:32.423Z,25.40
2022-08-18T17:15:59.292Z,25.40
2022-08-18T17:18:27.083Z,25.60
2022-08-18T17:20:54.359Z,25.50
2022-08-18T17:23:22.570Z,25.60
2022-08-18T17:25:50.872Z,25.70
2022-08-18T17:28:23.065Z,25.70
2022-08-18T17:30:53.499Z,25.60
2022-08-18T17:33:25.754Z,25.50
2022-08-18T17:35:54.254Z,25.40
2022-08-18T17:38:27.692Z,25.30
2022-08-18T17:40:57.186Z,25.40
2022-08-18T17:43:29.125Z,25.20
2022-08-18T17:46:02.245Z,25.00
2022-08-18T17:48:37.517Z,25.00
2022-08-18T17:51:30.421Z,25.00
2022-08-18T17:54:01.434Z,24.90
2022-08-18T17:56:38.167Z,24.80
2022-08-18T17:59:46.374Z,24.80
2022-08-18T18:02:29.347Z,24.70
2022-08-18T18:05:02.058Z,24.50
2022-08-18T18:07:40.544Z,24.40
2022-08-18T18:10:23.239Z,24.50
2022-08-18T18:13:09.097Z,24.50
2022-08-18T18:15:40.684Z,24.50
2022-08-18T18:18:19.596Z,24.30
2022-08-18T18:21:16.395Z,24.20
2022-08-18T18:23:50.442Z,24.20
2022-08-18T18:26:37.574Z,24.30
2022-08-18T18:29:15.868Z,24.20
2022-08-18T18:31:58.206Z,24.10
2022-08-18T18:34:30.595Z,24.10
2022-08-18T18:36:59.465Z,24.00
2022-08-18T18:39:38.055Z,23.80
2022-08-18T18:42:19.526Z,23.70
2022-08-18T18:44:59.299Z,23.50
2022-08-18T18:47:44.081Z,23.40
2022-08-18T18:50:53.079Z,23.40
2022-08-18T18:53:54.859Z,23.30
2022-08-18T18:56:28.884Z,23.20
2022-08-18T18:59:18.761Z,23.20
2022-08-18T19:02:13.670Z,23.10
2022-08-18T19:05:04.276Z,23.00
2022-08-18T19:07:49.832Z,23.10
2022-08-18T19:10:39.432Z,23.00
2022-08-18T19:13:32.634Z,23.00
2022-08-18T19:16:33.927Z,22.90
2022-08-18T19:19:38.424Z,22.90
2022-08-18T19:22:45.016Z,22.80
2022-08-18T19:25:26.844Z,22.80
2022-08-18T19:28:12.203Z,22.80
2022-08-18T19:30:44.002Z,22.70
2022-08-18T19:33:24.794Z,22.60
2022-08-18T19:36:04.763Z,22.50
2022-08-18T19:38:59.130Z,22.50
2022-08-18T19:41:56.714Z,22.50
2022-08-18T19:44:26.685Z,22.40
2022-08-18T19:47:04.753Z,22.40
2022-08-18T19:49:50.039Z,22.30
2022-08-18T19:52:59.472Z,22.30
2022-08-18T19:55:44.396Z,22.20
2022-08-18T19:58:20.090Z,22.10
2022-08-18T20:00:57.918Z,22.00
2022-08-18T20:03:52.602Z,22.10
2022-08-18T20:06:36.030Z,22.00
2022-08-18T20:09:13.126Z,22.00
2022-08-18T20:12:22.215Z,21.90
2022-08-18T20:15:03.089Z,21.80
2022-08-18T20:17:31.283Z,21.70
2022-08-18T20:20:13.776Z,21.70
2022-08-18T20:22:46.706Z,21.80
2022-08-18T20:25:17.712Z,21.70
2022-08-18T20:27:53.296Z,21.60
2022-08-18T20:30:20.126Z,21.60
2022-08-18T20:33:05.772Z,21.60
2022-08-18T20:36:15.316Z,21.40
2022-08-18T20:38:48.016Z,21.40
2022-08-18T20:41:24.697Z,21.30
2022-08-18T20:43:55.516Z,21.20
2022-08-18T20:47:04.840Z,21.10
2022-08-18T20:49:50.932Z,21.00
2022-08-18T20:52:29.658Z,21.00
2022-08-18T20:55:11.666Z,20.90
2022-08-18T20:57:40.208Z,20.90
2022-08-18T21:00:22.703Z,20.90
2022-08-18T21:02:57.836Z,20.90
2022-08-18T21:05:27.679Z,21.00
2022-08-18T21:08:19.984Z,20.90
2022-08-18T21:10:58.230Z,20.90
2022-08-18T21:13:41.568Z,20.80
2022-08-18T21:16:11.112Z,20.70
2022-08-18T21:18:39.577Z,20.70
2022-08-18T21:21:26.853Z,20.60
2022-08-18T21:23:58.099Z,20.60
2022-08-18T21:26:26.879Z,20.50
2022-08-18T21:28:58.511Z,20.40
2022-08-18T21:31:42.177Z,20.30
2022-08-18T21:34:33.451Z,20.30
2022-08-18T21:37:08.502Z,20.20
2022-08-18T21:39:46.336Z,20.20
2022-08-18T21:42:28.037Z,20.20
2022-08-18T21:44:57.310Z,20.20
2022-08-18T21:47:33.289Z,20.20
2022-08-18T21:50:23.248Z,20.10
2022-08-18T21:52:54.171Z,20.20
2022-08-18T21:55:27.290Z,20.10
2022-08-18T21:58:01.344Z,20.10
2022-08-18T22:00:32.057Z,20.00
2022-08-18T22:03:28.278Z,20.00
2022-08-18T22:06:21.361Z,19.90
2022-08-18T22:09:28.700Z,19.90
2022-08-18T22:12:52.738Z,19.90
2022-08-18T22:15:39.390Z,19.90
2022-08-18T22:18:28.687Z,19.80
2022-08-18T22:20:58.784Z,19.90
2022-08-18T22:23:57.312Z,19.80
2022-08-18T22:26:28.745Z,19.80
2022-08-18T22:29:21.559Z,19.70
2022-08-18T22:31:51.548Z,19.60
2022-08-18T22:34:27.730Z,19.60
2022-08-18T22:37:01.621Z,19.70
2022-08-18T22:39:37.930Z,19.70
2022-08-18T22:42:07.091Z,19.50
2022-08-18T22:44:34.201Z,19.60
2022-08-18T22:47:03.286Z,19.60
2022-08-18T22:49:30.724Z,19.60
2022-08-18T22:51:58.171Z,19.60
2022-08-18T22:54:25.496Z,19.60
2022-08-18T22:56:53.795Z,19.60
2022-08-18T22:59:26.998Z,19.50
2022-08-18T23:01:55.288Z,19.40
2022-08-18T23:04:25.590Z,19.40
2022-08-18T23:06:53.837Z,19.30
2022-08-18T23:09:26.988Z,19.30
2022-08-18T23:11:56.284Z,19.30
2022-08-18T23:14:23.436Z,19.20
2022-08-18T23:16:50.919Z,19.30
2022-08-18T23:19:19.600Z,19.30
2022-08-18T23:21:48.514Z,19.20
2022-08-18T23:24:16.891Z,19.20
2022-08-18T23:26:43.805Z,19.10
2022-08-18T23:29:12.500Z,19.10
2022-08-18T23:31:41.640Z,19.10
2022-08-18T23:34:11.511Z,19.20
2022-08-18T23:36:45.070Z,19.40
2022-08-18T23:39:13.091Z,19.30
2022-08-18T23:41:40.071Z,19.30
2022-08-18T23:44:07.156Z,19.20
2022-08-18T23:46:34.941Z,19.10
2022-08-18T23:49:04.244Z,19.20
2022-08-18T23:51:37.423Z,19.20
2022-08-18T23:54:08.071Z,19.20
2022-08-18T23:56:36.336Z,19.10
2022-08-18T23:59:06.361Z,19.10
